sensor_id;sensor_type;location;lat;lon;timestamp;P1;durP1;ratioP1;P2;durP2;ratioP2
49101;SDS011;34913;47.520;19.186;2022-12-22T00:02:32;81.60;;;38.50;;
49101;SDS011;34913;47.520;19.186;2022-12-22T00:05:18;74.60;;;36.63;;
49101;SDS011;34913;47.520;19.186;2022-12-22T00:08:03;73.78;;;36.60;;
49101;SDS011;34913;47.520;19.186;2022-12-22T00:10:47;67.65;;;34.85;;
49101;SDS011;34913;47.520;19.186;2022-12-22T00:13:32;70.18;;;34.17;;
49101;SDS011;34913;47.520;19.186;2022-12-22T00:16:16;75.25;;;36.33;;
49101;SDS011;34913;47.520;19.186;2022-12-22T00:19:00;69.13;;;35.33;;
49101;SDS011;34913;47.520;19.186;2022-12-22T00:21:45;65.88;;;35.13;;
49101;SDS011;34913;47.520;19.186;2022-12-22T00:24:29;73.65;;;35.03;;
49101;SDS011;34913;47.520;19.186;2022-12-22T00:27:18;86.78;;;39.85;;
49101;SDS011;34913;47.520;19.186;2022-12-22T00:30:11;72.88;;;35.45;;
49101;SDS011;34913;47.520;19.186;2022-12-22T00:32:59;74.38;;;35.97;;
49101;SDS011;34913;47.520;19.186;2022-12-22T00:35:45;78.90;;;37.42;;
49101;SDS011;34913;47.520;19.186;2022-12-22T00:38:29;79.68;;;37.55;;
49101;SDS011;34913;47.520;19.186;2022-12-22T00:41:13;70.82;;;35.05;;
49101;SDS011;34913;47.520;19.186;2022-12-22T00:43:57;72.43;;;35.28;;
49101;SDS011;34913;47.520;19.186;2022-12-22T00:46:41;65.10;;;33.35;;
49101;SDS011;34913;47.520;19.186;2022-12-22T00:49:28;64.55;;;32.58;;
49101;SDS011;34913;47.520;19.186;2022-12-22T00:52:14;92.90;;;40.45;;
49101;SDS011;34913;47.520;19.186;2022-12-22T00:55:00;91.07;;;41.45;;
49101;SDS011;34913;47.520;19.186;2022-12-22T00:57:45;89.30;;;40.35;;
49101;SDS011;34913;47.520;19.186;2022-12-22T01:00:29;74.65;;;36.58;;
49101;SDS011;34913;47.520;19.186;2022-12-22T01:03:13;75.57;;;37.40;;
49101;SDS011;34913;47.520;19.186;2022-12-22T01:05:58;80.00;;;39.00;;
49101;SDS011;34913;47.520;19.186;2022-12-22T01:08:44;73.40;;;35.65;;
49101;SDS011;34913;47.520;19.186;2022-12-22T01:11:28;67.93;;;34.95;;
49101;SDS011;34913;47.520;19.186;2022-12-22T01:14:14;71.63;;;35.05;;
49101;SDS011;34913;47.520;19.186;2022-12-22T01:16:58;76.55;;;35.35;;
49101;SDS011;34913;47.520;19.186;2022-12-22T01:19:43;67.50;;;33.17;;
49101;SDS011;34913;47.520;19.186;2022-12-22T01:22:26;71.50;;;35.63;;
49101;SDS011;34913;47.520;19.186;2022-12-22T01:25:13;78.63;;;36.88;;
49101;SDS011;34913;47.520;19.186;2022-12-22T01:28:00;71.13;;;35.70;;
49101;SDS011;34913;47.520;19.186;2022-12-22T01:30:44;65.57;;;34.38;;
49101;SDS011;34913;47.520;19.186;2022-12-22T01:33:29;64.88;;;34.38;;
49101;SDS011;34913;47.520;19.186;2022-12-22T01:36:12;63.80;;;33.90;;
49101;SDS011;34913;47.520;19.186;2022-12-22T01:38:56;62.28;;;32.45;;
49101;SDS011;34913;47.520;19.186;2022-12-22T01:41:40;66.10;;;33.72;;
49101;SDS011;34913;47.520;19.186;2022-12-22T01:44:24;65.18;;;32.13;;
49101;SDS011;34913;47.520;19.186;2022-12-22T01:50:21;62.80;;;31.90;;
49101;SDS011;34913;47.520;19.186;2022-12-22T01:53:12;60.72;;;31.65;;
49101;SDS011;34913;47.520;19.186;2022-12-22T01:56:00;58.25;;;30.65;;
49101;SDS011;34913;47.520;19.186;2022-12-22T01:58:46;59.50;;;29.95;;
49101;SDS011;34913;47.520;19.186;2022-12-22T02:01:34;58.40;;;29.27;;
49101;SDS011;34913;47.520;19.186;2022-12-22T02:04:19;58.13;;;29.60;;
49101;SDS011;34913;47.520;19.186;2022-12-22T02:07:10;47.63;;;26.50;;
49101;SDS011;34913;47.520;19.186;2022-12-22T02:22:41;61.47;;;30.45;;
49101;SDS011;34913;47.520;19.186;2022-12-22T02:25:53;48.50;;;26.50;;
49101;SDS011;34913;47.520;19.186;2022-12-22T02:28:42;51.67;;;25.80;;
49101;SDS011;34913;47.520;19.186;2022-12-22T02:31:32;48.55;;;26.40;;
49101;SDS011;34913;47.520;19.186;2022-12-22T02:34:17;48.78;;;25.48;;
49101;SDS011;34913;47.520;19.186;2022-12-22T02:37:09;48.75;;;24.48;;
49101;SDS011;34913;47.520;19.186;2022-12-22T02:43:28;48.17;;;26.10;;
49101;SDS011;34913;47.520;19.186;2022-12-22T02:46:24;50.95;;;25.33;;
49101;SDS011;34913;47.520;19.186;2022-12-22T02:49:15;54.33;;;26.95;;
49101;SDS011;34913;47.520;19.186;2022-12-22T02:52:14;50.90;;;25.27;;
49101;SDS011;34913;47.520;19.186;2022-12-22T02:55:02;43.75;;;23.42;;
49101;SDS011;34913;47.520;19.186;2022-12-22T02:57:50;45.55;;;24.42;;
49101;SDS011;34913;47.520;19.186;2022-12-22T03:00:37;48.33;;;24.52;;
49101;SDS011;34913;47.520;19.186;2022-12-22T03:03:22;46.83;;;25.35;;
49101;SDS011;34913;47.520;19.186;2022-12-22T03:06:06;49.08;;;25.92;;
49101;SDS011;34913;47.520;19.186;2022-12-22T03:08:50;46.47;;;25.35;;
49101;SDS011;34913;47.520;19.186;2022-12-22T03:11:34;48.13;;;24.60;;
49101;SDS011;34913;47.520;19.186;2022-12-22T03:14:18;47.85;;;24.40;;
49101;SDS011;34913;47.520;19.186;2022-12-22T03:17:02;56.20;;;27.67;;
49101;SDS011;34913;47.520;19.186;2022-12-22T03:19:46;52.65;;;26.08;;
49101;SDS011;34913;47.520;19.186;2022-12-22T03:22:29;47.35;;;25.63;;
49101;SDS011;34913;47.520;19.186;2022-12-22T03:25:13;46.63;;;25.38;;
49101;SDS011;34913;47.520;19.186;2022-12-22T03:28:04;48.75;;;25.30;;
49101;SDS011;34913;47.520;19.186;2022-12-22T03:30:32;48.08;;;24.33;;
49101;SDS011;34913;47.520;19.186;2022-12-22T03:32:57;48.22;;;25.13;;
49101;SDS011;34913;47.520;19.186;2022-12-22T03:35:23;48.85;;;25.05;;
49101;SDS011;34913;47.520;19.186;2022-12-22T03:37:49;53.67;;;26.38;;
49101;SDS011;34913;47.520;19.186;2022-12-22T03:40:14;53.75;;;26.60;;
49101;SDS011;34913;47.520;19.186;2022-12-22T03:42:40;53.40;;;27.88;;
49101;SDS011;34913;47.520;19.186;2022-12-22T03:45:23;49.85;;;26.42;;
49101;SDS011;34913;47.520;19.186;2022-12-22T03:48:07;55.78;;;27.75;;
49101;SDS011;34913;47.520;19.186;2022-12-22T03:50:32;51.47;;;27.40;;
49101;SDS011;34913;47.520;19.186;2022-12-22T03:52:58;51.47;;;26.42;;
49101;SDS011;34913;47.520;19.186;2022-12-22T03:55:23;50.15;;;26.13;;
49101;SDS011;34913;47.520;19.186;2022-12-22T03:57:49;50.83;;;24.63;;
49101;SDS011;34913;47.520;19.186;2022-12-22T04:00:14;50.83;;;26.77;;
49101;SDS011;34913;47.520;19.186;2022-12-22T04:02:40;49.75;;;27.00;;
49101;SDS011;34913;47.520;19.186;2022-12-22T04:05:06;53.25;;;27.52;;
49101;SDS011;34913;47.520;19.186;2022-12-22T04:07:32;55.00;;;28.63;;
49101;SDS011;34913;47.520;19.186;2022-12-22T04:09:57;54.13;;;28.17;;
49101;SDS011;34913;47.520;19.186;2022-12-22T04:12:41;57.88;;;31.52;;
49101;SDS011;34913;47.520;19.186;2022-12-22T04:15:22;59.50;;;30.55;;
49101;SDS011;34913;47.520;19.186;2022-12-22T04:17:49;57.75;;;31.83;;
49101;SDS011;34913;47.520;19.186;2022-12-22T04:20:15;63.20;;;33.28;;
49101;SDS011;34913;47.520;19.186;2022-12-22T04:22:40;61.00;;;32.67;;
49101;SDS011;34913;47.520;19.186;2022-12-22T04:25:06;60.83;;;31.08;;
49101;SDS011;34913;47.520;19.186;2022-12-22T04:27:32;63.67;;;32.10;;
49101;SDS011;34913;47.520;19.186;2022-12-22T04:29:57;59.90;;;32.20;;
49101;SDS011;34913;47.520;19.186;2022-12-22T04:32:22;60.92;;;32.70;;
49101;SDS011;34913;47.520;19.186;2022-12-22T04:34:48;62.15;;;32.08;;
49101;SDS011;34913;47.520;19.186;2022-12-22T04:37:13;64.53;;;33.15;;
49101;SDS011;34913;47.520;19.186;2022-12-22T04:39:38;64.38;;;33.35;;
49101;SDS011;34913;47.520;19.186;2022-12-22T04:42:04;65.07;;;33.42;;
49101;SDS011;34913;47.520;19.186;2022-12-22T04:44:29;65.10;;;33.47;;
49101;SDS011;34913;47.520;19.186;2022-12-22T04:46:55;62.58;;;33.20;;
49101;SDS011;34913;47.520;19.186;2022-12-22T04:49:20;63.33;;;33.42;;
49101;SDS011;34913;47.520;19.186;2022-12-22T04:51:45;62.88;;;32.72;;
49101;SDS011;34913;47.520;19.186;2022-12-22T04:54:11;63.10;;;32.30;;
49101;SDS011;34913;47.520;19.186;2022-12-22T04:56:36;63.95;;;32.95;;
49101;SDS011;34913;47.520;19.186;2022-12-22T04:59:02;62.15;;;32.83;;
49101;SDS011;34913;47.520;19.186;2022-12-22T05:01:27;64.32;;;32.25;;
49101;SDS011;34913;47.520;19.186;2022-12-22T05:03:52;60.17;;;30.75;;
49101;SDS011;34913;47.520;19.186;2022-12-22T05:06:18;61.53;;;31.00;;
49101;SDS011;34913;47.520;19.186;2022-12-22T05:08:43;59.35;;;31.08;;
49101;SDS011;34913;47.520;19.186;2022-12-22T05:11:09;58.03;;;29.63;;
49101;SDS011;34913;47.520;19.186;2022-12-22T05:13:35;57.00;;;30.20;;
49101;SDS011;34913;47.520;19.186;2022-12-22T05:18:30;62.72;;;32.42;;
49101;SDS011;34913;47.520;19.186;2022-12-22T05:20:56;63.13;;;31.65;;
49101;SDS011;34913;47.520;19.186;2022-12-22T05:23:21;61.33;;;30.85;;
49101;SDS011;34913;47.520;19.186;2022-12-22T05:25:46;58.50;;;30.98;;
49101;SDS011;34913;47.520;19.186;2022-12-22T05:28:12;63.75;;;30.85;;
49101;SDS011;34913;47.520;19.186;2022-12-22T05:30:39;62.13;;;30.48;;
49101;SDS011;34913;47.520;19.186;2022-12-22T05:33:05;59.58;;;30.30;;
49101;SDS011;34913;47.520;19.186;2022-12-22T05:35:30;65.13;;;31.33;;
49101;SDS011;34913;47.520;19.186;2022-12-22T05:37:56;61.33;;;30.95;;
49101;SDS011;34913;47.520;19.186;2022-12-22T05:40:21;59.90;;;30.60;;
49101;SDS011;34913;47.520;19.186;2022-12-22T05:42:47;63.53;;;31.70;;
49101;SDS011;34913;47.520;19.186;2022-12-22T05:47:42;65.45;;;32.17;;
49101;SDS011;34913;47.520;19.186;2022-12-22T05:50:13;65.25;;;33.72;;
49101;SDS011;34913;47.520;19.186;2022-12-22T05:52:40;65.25;;;33.15;;
49101;SDS011;34913;47.520;19.186;2022-12-22T05:55:06;67.03;;;32.85;;
49101;SDS011;34913;47.520;19.186;2022-12-22T05:57:33;74.78;;;33.53;;
49101;SDS011;34913;47.520;19.186;2022-12-22T05:59:58;66.88;;;33.92;;
49101;SDS011;34913;47.520;19.186;2022-12-22T06:02:24;62.67;;;32.47;;
49101;SDS011;34913;47.520;19.186;2022-12-22T06:04:50;65.65;;;32.95;;
49101;SDS011;34913;47.520;19.186;2022-12-22T06:07:15;66.93;;;34.92;;
49101;SDS011;34913;47.520;19.186;2022-12-22T06:09:41;65.35;;;34.78;;
49101;SDS011;34913;47.520;19.186;2022-12-22T06:12:06;71.47;;;35.65;;
49101;SDS011;34913;47.520;19.186;2022-12-22T06:14:32;67.25;;;35.25;;
49101;SDS011;34913;47.520;19.186;2022-12-22T06:16:57;66.28;;;34.53;;
49101;SDS011;34913;47.520;19.186;2022-12-22T06:19:23;62.67;;;33.30;;
49101;SDS011;34913;47.520;19.186;2022-12-22T06:21:48;68.22;;;35.33;;
49101;SDS011;34913;47.520;19.186;2022-12-22T06:24:14;65.43;;;32.85;;
49101;SDS011;34913;47.520;19.186;2022-12-22T06:26:39;61.60;;;32.60;;
49101;SDS011;34913;47.520;19.186;2022-12-22T06:29:04;65.47;;;34.65;;
49101;SDS011;34913;47.520;19.186;2022-12-22T06:31:30;66.78;;;34.05;;
49101;SDS011;34913;47.520;19.186;2022-12-22T06:33:55;67.35;;;34.67;;
49101;SDS011;34913;47.520;19.186;2022-12-22T06:36:20;66.60;;;34.10;;
49101;SDS011;34913;47.520;19.186;2022-12-22T06:38:46;73.75;;;35.67;;
49101;SDS011;34913;47.520;19.186;2022-12-22T06:41:11;67.28;;;33.90;;
49101;SDS011;34913;47.520;19.186;2022-12-22T06:43:37;68.05;;;34.75;;
49101;SDS011;34913;47.520;19.186;2022-12-22T06:46:02;70.88;;;35.63;;
49101;SDS011;34913;47.520;19.186;2022-12-22T06:48:27;69.93;;;35.38;;
49101;SDS011;34913;47.520;19.186;2022-12-22T06:50:56;71.15;;;35.60;;
49101;SDS011;34913;47.520;19.186;2022-12-22T06:53:23;74.88;;;36.70;;
49101;SDS011;34913;47.520;19.186;2022-12-22T06:55:48;69.57;;;36.20;;
49101;SDS011;34913;47.520;19.186;2022-12-22T06:58:13;75.25;;;37.13;;
49101;SDS011;34913;47.520;19.186;2022-12-22T07:00:39;77.15;;;35.47;;
49101;SDS011;34913;47.520;19.186;2022-12-22T07:03:04;73.72;;;35.75;;
49101;SDS011;34913;47.520;19.186;2022-12-22T07:05:30;71.75;;;35.17;;
49101;SDS011;34913;47.520;19.186;2022-12-22T07:07:56;72.47;;;36.45;;
49101;SDS011;34913;47.520;19.186;2022-12-22T07:10:21;75.93;;;37.70;;
49101;SDS011;34913;47.520;19.186;2022-12-22T07:13:06;71.82;;;35.80;;
49101;SDS011;34913;47.520;19.186;2022-12-22T07:15:43;74.80;;;36.63;;
49101;SDS011;34913;47.520;19.186;2022-12-22T07:18:10;78.40;;;37.75;;
49101;SDS011;34913;47.520;19.186;2022-12-22T07:20:35;76.78;;;38.75;;
49101;SDS011;34913;47.520;19.186;2022-12-22T07:23:00;75.72;;;38.17;;
49101;SDS011;34913;47.520;19.186;2022-12-22T07:25:26;76.78;;;38.45;;
49101;SDS011;34913;47.520;19.186;2022-12-22T07:27:51;84.50;;;42.30;;
49101;SDS011;34913;47.520;19.186;2022-12-22T07:30:16;83.90;;;39.95;;
49101;SDS011;34913;47.520;19.186;2022-12-22T07:32:42;100.53;;;48.75;;
49101;SDS011;34913;47.520;19.186;2022-12-22T07:35:07;89.55;;;41.25;;
49101;SDS011;34913;47.520;19.186;2022-12-22T07:37:33;93.45;;;43.70;;
49101;SDS011;34913;47.520;19.186;2022-12-22T07:39:58;80.35;;;40.55;;
49101;SDS011;34913;47.520;19.186;2022-12-22T07:42:24;78.90;;;39.72;;
49101;SDS011;34913;47.520;19.186;2022-12-22T07:45:08;80.05;;;39.05;;
49101;SDS011;34913;47.520;19.186;2022-12-22T07:47:33;86.13;;;40.75;;
49101;SDS011;34913;47.520;19.186;2022-12-22T07:49:59;84.65;;;40.17;;
49101;SDS011;34913;47.520;19.186;2022-12-22T07:52:43;82.22;;;39.75;;
49101;SDS011;34913;47.520;19.186;2022-12-22T07:55:08;86.95;;;39.97;;
49101;SDS011;34913;47.520;19.186;2022-12-22T07:57:33;81.65;;;41.38;;
49101;SDS011;34913;47.520;19.186;2022-12-22T07:59:59;77.68;;;38.80;;
49101;SDS011;34913;47.520;19.186;2022-12-22T08:02:25;77.78;;;38.05;;
49101;SDS011;34913;47.520;19.186;2022-12-22T08:04:50;77.18;;;38.35;;
49101;SDS011;34913;47.520;19.186;2022-12-22T08:07:16;70.93;;;35.97;;
49101;SDS011;34913;47.520;19.186;2022-12-22T08:09:41;76.55;;;37.92;;
49101;SDS011;34913;47.520;19.186;2022-12-22T08:12:07;71.60;;;35.83;;
49101;SDS011;34913;47.520;19.186;2022-12-22T08:14:32;71.95;;;36.65;;
49101;SDS011;34913;47.520;19.186;2022-12-22T08:16:58;73.82;;;36.42;;
49101;SDS011;34913;47.520;19.186;2022-12-22T08:19:23;77.28;;;38.08;;
49101;SDS011;34913;47.520;19.186;2022-12-22T08:21:48;74.55;;;37.05;;
49101;SDS011;34913;47.520;19.186;2022-12-22T08:24:14;76.85;;;39.42;;
49101;SDS011;34913;47.520;19.186;2022-12-22T08:26:40;80.22;;;39.03;;
49101;SDS011;34913;47.520;19.186;2022-12-22T08:29:12;78.95;;;38.65;;
49101;SDS011;34913;47.520;19.186;2022-12-22T08:31:42;74.13;;;38.27;;
49101;SDS011;34913;47.520;19.186;2022-12-22T08:34:08;73.70;;;37.30;;
49101;SDS011;34913;47.520;19.186;2022-12-22T08:36:37;72.25;;;36.42;;
49101;SDS011;34913;47.520;19.186;2022-12-22T08:39:06;72.22;;;35.53;;
49101;SDS011;34913;47.520;19.186;2022-12-22T08:41:32;68.15;;;34.58;;
49101;SDS011;34913;47.520;19.186;2022-12-22T08:44:14;69.40;;;36.13;;
49101;SDS011;34913;47.520;19.186;2022-12-22T08:46:40;75.35;;;36.10;;
49101;SDS011;34913;47.520;19.186;2022-12-22T08:49:05;68.32;;;34.05;;
49101;SDS011;34913;47.520;19.186;2022-12-22T08:51:31;70.93;;;34.85;;
49101;SDS011;34913;47.520;19.186;2022-12-22T08:53:56;66.28;;;34.28;;
49101;SDS011;34913;47.520;19.186;2022-12-22T08:56:22;74.38;;;35.47;;
49101;SDS011;34913;47.520;19.186;2022-12-22T08:58:47;71.80;;;33.92;;
49101;SDS011;34913;47.520;19.186;2022-12-22T09:01:16;65.97;;;33.65;;
49101;SDS011;34913;47.520;19.186;2022-12-22T09:03:46;74.97;;;34.10;;
49101;SDS011;34913;47.520;19.186;2022-12-22T09:06:15;67.38;;;33.38;;
49101;SDS011;34913;47.520;19.186;2022-12-22T09:08:44;66.97;;;33.70;;
49101;SDS011;34913;47.520;19.186;2022-12-22T09:11:10;65.57;;;32.58;;
49101;SDS011;34913;47.520;19.186;2022-12-22T09:13:35;63.58;;;33.08;;
49101;SDS011;34913;47.520;19.186;2022-12-22T09:16:04;66.45;;;32.97;;
49101;SDS011;34913;47.520;19.186;2022-12-22T09:18:30;68.45;;;32.35;;
49101;SDS011;34913;47.520;19.186;2022-12-22T09:20:56;63.47;;;32.55;;
49101;SDS011;34913;47.520;19.186;2022-12-22T09:23:21;65.45;;;32.80;;
49101;SDS011;34913;47.520;19.186;2022-12-22T09:25:47;63.42;;;33.35;;
49101;SDS011;34913;47.520;19.186;2022-12-22T09:28:12;64.00;;;33.63;;
49101;SDS011;34913;47.520;19.186;2022-12-22T09:30:38;68.47;;;33.83;;
49101;SDS011;34913;47.520;19.186;2022-12-22T09:33:03;64.43;;;32.88;;
49101;SDS011;34913;47.520;19.186;2022-12-22T09:35:28;65.25;;;31.75;;
49101;SDS011;34913;47.520;19.186;2022-12-22T09:37:54;66.68;;;33.05;;
49101;SDS011;34913;47.520;19.186;2022-12-22T09:40:19;64.25;;;33.40;;
49101;SDS011;34913;47.520;19.186;2022-12-22T09:42:46;70.43;;;35.30;;
49101;SDS011;34913;47.520;19.186;2022-12-22T09:45:13;65.95;;;32.83;;
49101;SDS011;34913;47.520;19.186;2022-12-22T09:47:48;65.05;;;33.80;;
49101;SDS011;34913;47.520;19.186;2022-12-22T09:52:50;66.47;;;31.55;;
49101;SDS011;34913;47.520;19.186;2022-12-22T09:57:50;67.22;;;31.58;;
49101;SDS011;34913;47.520;19.186;2022-12-22T10:00:18;63.00;;;31.98;;
49101;SDS011;34913;47.520;19.186;2022-12-22T10:05:40;66.50;;;32.70;;
49101;SDS011;34913;47.520;19.186;2022-12-22T10:08:11;67.40;;;33.38;;
49101;SDS011;34913;47.520;19.186;2022-12-22T10:10:45;58.80;;;31.67;;
49101;SDS011;34913;47.520;19.186;2022-12-22T10:13:17;62.75;;;32.42;;
49101;SDS011;34913;47.520;19.186;2022-12-22T10:15:43;58.17;;;31.90;;
49101;SDS011;34913;47.520;19.186;2022-12-22T10:18:13;62.88;;;31.38;;
49101;SDS011;34913;47.520;19.186;2022-12-22T10:20:46;62.85;;;32.40;;
49101;SDS011;34913;47.520;19.186;2022-12-22T10:23:31;63.13;;;32.38;;
49101;SDS011;34913;47.520;19.186;2022-12-22T10:26:04;62.88;;;33.17;;
49101;SDS011;34913;47.520;19.186;2022-12-22T10:28:38;70.63;;;33.90;;
49101;SDS011;34913;47.520;19.186;2022-12-22T10:31:27;65.30;;;32.95;;
49101;SDS011;34913;47.520;19.186;2022-12-22T10:34:08;66.55;;;33.75;;
49101;SDS011;34913;47.520;19.186;2022-12-22T10:36:36;69.72;;;32.65;;
49101;SDS011;34913;47.520;19.186;2022-12-22T10:39:06;63.20;;;32.17;;
49101;SDS011;34913;47.520;19.186;2022-12-22T10:41:35;69.38;;;32.60;;
49101;SDS011;34913;47.520;19.186;2022-12-22T10:44:07;62.00;;;32.22;;
49101;SDS011;34913;47.520;19.186;2022-12-22T10:49:15;61.67;;;31.80;;
49101;SDS011;34913;47.520;19.186;2022-12-22T10:52:12;62.67;;;31.73;;
49101;SDS011;34913;47.520;19.186;2022-12-22T10:54:37;63.28;;;30.92;;
49101;SDS011;34913;47.520;19.186;2022-12-22T10:57:06;62.58;;;31.55;;
49101;SDS011;34913;47.520;19.186;2022-12-22T10:59:58;60.30;;;31.90;;
49101;SDS011;34913;47.520;19.186;2022-12-22T11:05:00;63.35;;;32.00;;
49101;SDS011;34913;47.520;19.186;2022-12-22T11:07:37;60.65;;;32.47;;
49101;SDS011;34913;47.520;19.186;2022-12-22T11:10:14;68.50;;;33.92;;
49101;SDS011;34913;47.520;19.186;2022-12-22T11:30:00;61.15;;;32.15;;
49101;SDS011;34913;47.520;19.186;2022-12-22T11:37:58;64.97;;;31.98;;
49101;SDS011;34913;47.520;19.186;2022-12-22T11:43:20;61.42;;;33.10;;
49101;SDS011;34913;47.520;19.186;2022-12-22T11:46:00;67.97;;;33.60;;
49101;SDS011;34913;47.520;19.186;2022-12-22T12:07:53;69.28;;;35.10;;
49101;SDS011;34913;47.520;19.186;2022-12-22T12:12:58;64.47;;;34.65;;
49101;SDS011;34913;47.520;19.186;2022-12-22T12:34:51;70.00;;;34.35;;
49101;SDS011;34913;47.520;19.186;2022-12-22T12:37:36;68.53;;;33.75;;
49101;SDS011;34913;47.520;19.186;2022-12-22T12:43:06;66.90;;;33.38;;
49101;SDS011;34913;47.520;19.186;2022-12-22T12:50:54;67.35;;;34.83;;
49101;SDS011;34913;47.520;19.186;2022-12-22T12:53:24;67.97;;;34.88;;
49101;SDS011;34913;47.520;19.186;2022-12-22T13:01:10;71.13;;;36.30;;
49101;SDS011;34913;47.520;19.186;2022-12-22T13:03:40;76.38;;;35.75;;
49101;SDS011;34913;47.520;19.186;2022-12-22T13:06:07;72.65;;;35.47;;
49101;SDS011;34913;47.520;19.186;2022-12-22T13:29:00;75.07;;;36.15;;
49101;SDS011;34913;47.520;19.186;2022-12-22T13:32:19;78.85;;;38.40;;
49101;SDS011;34913;47.520;19.186;2022-12-22T13:34:37;76.47;;;36.70;;
49101;SDS011;34913;47.520;19.186;2022-12-22T13:37:23;73.88;;;36.33;;
49101;SDS011;34913;47.520;19.186;2022-12-22T13:43:21;73.40;;;36.00;;
49101;SDS011;34913;47.520;19.186;2022-12-22T13:45:33;69.63;;;35.17;;
49101;SDS011;34913;47.520;19.186;2022-12-22T13:48:00;71.60;;;35.40;;
49101;SDS011;34913;47.520;19.186;2022-12-22T13:50:45;73.95;;;36.08;;
49101;SDS011;34913;47.520;19.186;2022-12-22T13:53:36;72.70;;;35.83;;
49101;SDS011;34913;47.520;19.186;2022-12-22T13:56:05;72.43;;;34.47;;
49101;SDS011;34913;47.520;19.186;2022-12-22T13:58:36;72.25;;;36.17;;
49101;SDS011;34913;47.520;19.186;2022-12-22T14:03:43;76.53;;;35.15;;
49101;SDS011;34913;47.520;19.186;2022-12-22T14:06:17;71.63;;;35.97;;
49101;SDS011;34913;47.520;19.186;2022-12-22T14:08:50;72.88;;;35.25;;
49101;SDS011;34913;47.520;19.186;2022-12-22T14:11:16;76.00;;;35.05;;
49101;SDS011;34913;47.520;19.186;2022-12-22T14:13:41;76.50;;;36.85;;
49101;SDS011;34913;47.520;19.186;2022-12-22T14:16:10;77.00;;;35.88;;
49101;SDS011;34913;47.520;19.186;2022-12-22T14:18:38;73.60;;;36.28;;
49101;SDS011;34913;47.520;19.186;2022-12-22T14:21:04;82.15;;;38.05;;
49101;SDS011;34913;47.520;19.186;2022-12-22T14:23:32;82.85;;;39.28;;
49101;SDS011;34913;47.520;19.186;2022-12-22T14:26:02;84.60;;;40.05;;
49101;SDS011;34913;47.520;19.186;2022-12-22T14:28:36;82.15;;;39.03;;
49101;SDS011;34913;47.520;19.186;2022-12-22T14:31:06;81.20;;;39.38;;
49101;SDS011;34913;47.520;19.186;2022-12-22T14:33:36;79.07;;;39.42;;
49101;SDS011;34913;47.520;19.186;2022-12-22T14:38:43;80.13;;;40.50;;
49101;SDS011;34913;47.520;19.186;2022-12-22T14:41:16;84.65;;;39.50;;
49101;SDS011;34913;47.520;19.186;2022-12-22T14:44:05;79.22;;;38.95;;
49101;SDS011;34913;47.520;19.186;2022-12-22T14:52:29;76.10;;;37.13;;
49101;SDS011;34913;47.520;19.186;2022-12-22T14:55:20;77.05;;;38.97;;
49101;SDS011;34913;47.520;19.186;2022-12-22T14:57:51;76.93;;;38.03;;
49101;SDS011;34913;47.520;19.186;2022-12-22T15:02:49;74.78;;;37.13;;
49101;SDS011;34913;47.520;19.186;2022-12-22T15:05:25;79.05;;;37.15;;
49101;SDS011;34913;47.520;19.186;2022-12-22T15:07:53;75.35;;;36.10;;
49101;SDS011;34913;47.520;19.186;2022-12-22T15:10:20;80.25;;;37.63;;
49101;SDS011;34913;47.520;19.186;2022-12-22T15:12:46;73.63;;;36.13;;
49101;SDS011;34913;47.520;19.186;2022-12-22T15:15:14;72.70;;;36.78;;
49101;SDS011;34913;47.520;19.186;2022-12-22T15:17:42;77.05;;;35.92;;
49101;SDS011;34913;47.520;19.186;2022-12-22T15:20:12;72.65;;;34.17;;
49101;SDS011;34913;47.520;19.186;2022-12-22T15:22:42;78.85;;;36.92;;
49101;SDS011;34913;47.520;19.186;2022-12-22T15:25:11;74.25;;;36.05;;
49101;SDS011;34913;47.520;19.186;2022-12-22T15:27:41;74.88;;;37.00;;
49101;SDS011;34913;47.520;19.186;2022-12-22T15:30:08;78.20;;;37.65;;
49101;SDS011;34913;47.520;19.186;2022-12-22T15:32:34;74.93;;;37.13;;
49101;SDS011;34913;47.520;19.186;2022-12-22T15:35:00;80.65;;;38.60;;
49101;SDS011;34913;47.520;19.186;2022-12-22T15:37:27;81.20;;;40.95;;
49101;SDS011;34913;47.520;19.186;2022-12-22T15:39:53;78.22;;;37.20;;
49101;SDS011;34913;47.520;19.186;2022-12-22T15:42:19;79.03;;;38.35;;
49101;SDS011;34913;47.520;19.186;2022-12-22T15:44:44;84.07;;;38.28;;
49101;SDS011;34913;47.520;19.186;2022-12-22T15:47:10;89.10;;;39.88;;
49101;SDS011;34913;47.520;19.186;2022-12-22T15:49:36;81.53;;;39.10;;
49101;SDS011;34913;47.520;19.186;2022-12-22T15:52:02;83.03;;;39.70;;
49101;SDS011;34913;47.520;19.186;2022-12-22T15:54:30;88.45;;;39.33;;
49101;SDS011;34913;47.520;19.186;2022-12-22T15:56:59;83.63;;;40.08;;
49101;SDS011;34913;47.520;19.186;2022-12-22T15:59:26;84.60;;;41.15;;
49101;SDS011;34913;47.520;19.186;2022-12-22T16:01:55;87.22;;;41.47;;
49101;SDS011;34913;47.520;19.186;2022-12-22T16:04:21;84.00;;;40.03;;
49101;SDS011;34913;47.520;19.186;2022-12-22T16:06:48;89.95;;;43.30;;
49101;SDS011;34913;47.520;19.186;2022-12-22T16:09:18;88.75;;;42.75;;
49101;SDS011;34913;47.520;19.186;2022-12-22T16:11:47;87.30;;;42.15;;
49101;SDS011;34913;47.520;19.186;2022-12-22T16:14:13;91.10;;;42.20;;
49101;SDS011;34913;47.520;19.186;2022-12-22T16:16:40;90.35;;;41.80;;
49101;SDS011;34913;47.520;19.186;2022-12-22T16:19:09;93.28;;;42.33;;
49101;SDS011;34913;47.520;19.186;2022-12-22T16:21:38;90.78;;;42.80;;
49101;SDS011;34913;47.520;19.186;2022-12-22T16:24:03;91.50;;;42.25;;
49101;SDS011;34913;47.520;19.186;2022-12-22T16:26:30;94.93;;;41.83;;
49101;SDS011;34913;47.520;19.186;2022-12-22T16:28:56;85.03;;;41.38;;
49101;SDS011;34913;47.520;19.186;2022-12-22T16:31:22;92.05;;;42.58;;
49101;SDS011;34913;47.520;19.186;2022-12-22T16:33:49;96.15;;;45.03;;
49101;SDS011;34913;47.520;19.186;2022-12-22T16:36:15;95.10;;;45.40;;
49101;SDS011;34913;47.520;19.186;2022-12-22T16:38:41;91.40;;;43.65;;
49101;SDS011;34913;47.520;19.186;2022-12-22T16:41:21;95.60;;;44.30;;
49101;SDS011;34913;47.520;19.186;2022-12-22T16:43:48;89.85;;;42.33;;
49101;SDS011;34913;47.520;19.186;2022-12-22T16:46:17;88.55;;;42.80;;
49101;SDS011;34913;47.520;19.186;2022-12-22T16:48:55;93.63;;;42.95;;
49101;SDS011;34913;47.520;19.186;2022-12-22T16:51:25;89.97;;;41.63;;
49101;SDS011;34913;47.520;19.186;2022-12-22T16:53:59;95.22;;;43.50;;
49101;SDS011;34913;47.520;19.186;2022-12-22T16:56:25;100.53;;;44.50;;
49101;SDS011;34913;47.520;19.186;2022-12-22T16:58:54;94.03;;;44.22;;
49101;SDS011;34913;47.520;19.186;2022-12-22T17:04:08;110.90;;;48.60;;
49101;SDS011;34913;47.520;19.186;2022-12-22T17:06:36;109.18;;;46.88;;
49101;SDS011;34913;47.520;19.186;2022-12-22T17:09:02;107.53;;;46.65;;
49101;SDS011;34913;47.520;19.186;2022-12-22T17:11:31;117.32;;;48.83;;
49101;SDS011;34913;47.520;19.186;2022-12-22T17:14:01;114.72;;;48.15;;
49101;SDS011;34913;47.520;19.186;2022-12-22T17:16:37;122.35;;;50.08;;